Hastings Natural History Reservation, California Weather observations

Data are for 10 minute period ending at time listed.
 Day   Time   Solar   Ave.   Ave.  Ave.  Vector  Max.   Baro.   Total    
  of    of     Rad.   Air    Rel.  Wind   Wind   Wind  Press.  Precip.   
Year   Day            Temp.  Hum.  Speed  Dir.   Gust                    
2017   (PST)  Kw/m2    F      %     mph   deg.    mph    mb.     in.     
-------------------------------------------------------------------------
 200   12:20   0.95   83.5    17    2.7   318    10.1   954.4    0.00 
 200   12:30   0.95   83.3    17    3.0   264    10.6   954.3    0.00 
 200   12:40   0.95   82.4    18    4.0   257     9.3   954.2    0.00 
 200   12:50   0.95   83.0    18    3.5   265    11.5   954.1    0.00 
 200   13:00   0.94   81.6    19    6.1   248    12.1   954.0    0.00 
 200   13:10   0.94   83.3    18    3.4   279     9.6   954.0    0.00 
 200   13:20   0.93   82.6    17    3.6   274    11.0   954.0    0.00 
 200   13:30   0.93   83.1    18    4.3   253    13.2   954.0    0.00 
 200   13:40   0.92   83.2    17    3.4   260    10.7   954.0    0.00 
 200   13:50   0.91   83.4    19    3.2   260     8.5   954.1    0.00 
 200   14:00   0.89   83.6    19    3.2   271    10.6   954.1    0.00 
 200   14:10   0.88   83.5    19    3.3   260     9.9   954.1    0.00 
 200   14:20   0.86   83.3    20    3.7   260    10.2   954.0    0.00 
 200   14:30   0.84   82.5    21    3.4   256    10.8   953.9    0.00 
 200   14:40   0.83   82.0    22    4.9   249    10.1   953.9    0.00 
 200   14:50   0.81   82.2    21    4.1   271    12.0   953.9    0.00 
 200   15:00   0.79   81.9    21    5.1   253    14.0   953.9    0.00 
 200   15:10   0.77   80.4    23    4.7   254    10.1   953.8    0.00 
 200   15:20   0.74   80.9    22    2.4   279     9.2   953.7    0.00 
 200   15:30   0.72   82.7    21    2.5   262     9.0   953.6    0.00 
 200   15:40   0.69   81.6    22    3.8   253     9.8   953.5    0.00 
 200   15:50   0.67   80.3    23    4.9   253     9.3   953.5    0.00 
 200   16:00   0.64   80.1    23    3.7   251    13.0   953.5    0.00 
 200   16:10   0.61   78.9    24    4.3   258    12.3   953.6    0.00 
 200   16:20   0.58   78.5    24    4.0   258    11.0   953.5    0.00 
 200   16:30   0.56   78.6    24    2.7   263     7.2   953.5    0.00 
 200   16:40   0.53   78.7    24    3.0   261     8.0   953.4    0.00 
 200   16:50   0.49   77.4    24    3.3   255     7.6   953.3    0.00 
 200   17:00   0.46   78.1    25    2.7   256     7.5   953.2    0.00 
 200   17:10   0.43   77.5    26    3.1   251     8.8   953.2    0.00 
 200   17:20   0.40   76.4    26    3.1   264    11.4   953.2    0.00 
 200   17:30   0.37   76.2    25    2.1   309     6.1   953.2    0.00 
 200   17:40   0.34   75.6    25    2.5   258     6.9   953.2    0.00 
 200   17:50   0.30   74.5    27    1.7   285     5.3   953.1    0.00 
 200   18:00   0.15   73.9    28    1.5   268     3.9   953.0    0.00 
 200   18:10   0.07   72.9    29    2.5   251     6.8   953.0    0.00 
 200   18:20   0.03   72.1    30    1.9   280     4.5   953.0    0.00 
 200   18:30   0.02   71.8    31    1.1   293     3.4   953.0    0.00 
 200   18:40   0.01   71.4    31    1.3   252     4.1   953.0    0.00 
 200   18:50   0.01   70.8    32    0.8   351     4.5   953.1    0.00 
 200   19:00   0.01   70.0    32    1.3    20     4.5   953.1    0.00 
 200   19:10   0.01   69.2    33    1.5   354     4.5   953.2    0.00 
 200   19:20   0.00   68.0    36    0.8   297     2.3   953.3    0.00 
 200   19:30   0.00   66.0    41    1.5   252     2.8   953.5    0.00 
 200   19:40   0.00   64.4    44    0.3   270     2.9   953.6    0.00 
 200   19:50   0.00   62.9    47    1.0   216     2.9   953.8    0.00 
 200   20:00   0.00   61.8    49    0.3   178     1.3   954.0    0.00 
 200   20:10   0.00   60.7    51    0.4    92     1.0   954.1    0.00 
 200   20:20   0.00   60.0    52    0.8   201     1.9   954.2    0.00 
 200   20:30   0.00   59.2    54    0.8    62     2.1   954.3    0.00 
 200   20:40   0.00   58.4    54    0.4    54     1.8   954.4    0.00 
 200   20:50   0.00   57.4    54    0.3    62     2.0   954.5    0.00 
 200   21:00   0.00   56.5    56    0.8    60     2.7   954.7    0.00 
 200   21:10   0.00   55.7    56    1.2   154     3.7   954.7    0.00 
 200   21:20   0.00   55.2    57    0.6    51     1.9   954.7    0.00 
 200   21:30   0.00   54.8    57    0.3   123     2.4   954.7    0.00 
 200   21:40   0.00   54.3    58    0.3    77     2.3   954.7    0.00 
 200   21:50   0.00   53.9    58    0.3    86     1.4   954.7    0.00 
 200   22:00   0.00   53.7    58    0.6    63     1.8   954.7    0.00 
 200   22:10   0.00   53.3    58    0.4    52     1.7   954.7    0.00 
 200   22:20   0.00   53.1    59    0.2    63     1.6   954.8    0.00 
 200   22:30   0.00   52.8    59    0.3    74     1.2   954.7    0.00 
 200   22:40   0.00   52.5    60    0.1   104     1.1   954.7    0.00 
 200   22:50   0.00   52.4    60    0.5    84     2.0   954.6    0.00 
 200   23:00   0.00   52.2    59    0.3   232     1.1   954.6    0.00 
 200   23:10   0.00   52.0    60    0.3    98     2.1   954.5    0.00 
 200   23:20   0.00   51.7    60    0.5    48     2.1   954.5    0.00 
 200   23:30   0.00   51.7    60    0.1    70     1.0   954.6    0.00 
 200   23:40   0.00   51.5    61    0.3    42     1.9   954.5    0.00 
 200   23:50   0.00   51.3    60    0.2    30     1.6   954.5    0.00 
 201    0:00   0.00   51.2    60    0.8   104     2.0   954.4    0.00 
 201    0:10   0.00   50.9    61    0.5    84     1.7   954.4    0.00 
 201    0:20   0.00   51.1    60    0.6    78     2.4   954.4    0.00 
 201    0:30   0.00   50.8    60    0.5    57     1.8   954.3    0.00 
 201    0:40   0.00   51.0    60    0.7    53     2.3   954.3    0.00 
 201    0:50   0.00   50.9    60    0.6    80     1.5   954.2    0.00 
 201    1:00   0.00   50.6    60    0.3    44     2.0   954.2    0.00 
 201    1:10   0.00   50.4    61    0.5    71     1.6   954.2    0.00 
 201    1:20   0.00   50.2    61    0.8    56     1.8   954.1    0.00 
 201    1:30   0.00   50.2    61    0.6    68     1.2   954.1    0.00 
 201    1:40   0.00   50.1    62    0.4    55     1.2   954.1    0.00 
 201    1:50   0.00   49.8    63    0.5    55     1.3   954.2    0.00 
 201    2:00   0.00   49.5    64    0.4    50     1.2   954.2    0.00 
 201    2:10   0.00   49.1    65    0.2    17     1.2   954.3    0.00 
 201    2:20   0.00   48.7    66    0.4    45     1.5   954.3    0.00 
 201    2:30   0.00   48.0    68    0.0    68     0.4   954.3    0.00 
 201    2:40   0.00   47.7    70    0.4    44     1.4   954.3    0.00 
 201    2:50   0.00   47.3    71    0.2    52     1.0   954.4    0.00 
 201    3:00   0.00   46.9    71    0.9    51     2.0   954.4    0.00 
 201    3:10   0.00   46.6    71    0.3    59     1.1   954.3    0.00 
 201    3:20   0.00   46.4    72    0.0    65     0.8   954.3    0.00 
 201    3:30   0.00   46.2    72    0.4    61     1.1   954.4    0.00 
 201    3:40   0.00   46.1    72    0.2    82     0.9   954.4    0.00 
 201    3:50   0.00   46.0    72    0.7    66     2.6   954.4    0.00 
 201    4:00   0.00   45.8    72    1.2    94     3.4   954.4    0.00 
 201    4:10   0.00   45.9    72    1.0    72     3.2   954.4    0.00 
 201    4:20   0.00   46.1    72    0.2    80     1.3   954.5    0.00 
 201    4:30   0.00   46.2    72    0.6    58     2.7   954.5    0.00 
 201    4:40   0.00   46.4    71    0.4    68     1.8   954.6    0.00 
 201    4:50   0.00   46.4    71    0.5    66     1.4   954.6    0.00 
 201    5:00   0.00   46.3    71    0.4    65     1.3   954.6    0.00 
 201    5:10   0.00   46.6    72    0.3    56     1.5   954.5    0.00 
 201    5:20   0.00   47.0    72    0.2    59     1.3   954.6    0.00 
 201    5:30   0.00   47.5    71    0.6    72     1.6   954.7    0.00 
 201    5:40   0.00   48.0    70    0.7    54     1.9   954.8    0.00 
 201    5:50   0.00   48.5    70    0.4    61     1.7   954.9    0.00 
 201    6:00   0.01   48.8    69    0.5    68     1.6   954.9    0.00 
 201    6:10   0.01   49.4    68    1.0    58     2.4   955.0    0.00 
 201    6:20   0.01   50.1    67    1.3    52     2.2   955.0    0.00 
 201    6:30   0.01   51.0    65    1.4    55     2.6   955.1    0.00 
 201    6:40   0.02   52.6    63    1.4    53     2.6   955.2    0.00 
 201    6:50   0.18   54.2    61    1.1    60     2.2   955.2    0.00 
 201    7:00   0.25   57.5    54    0.6    77     1.8   955.2    0.00 
 201    7:10   0.28   61.5    48    0.3    92     1.5   955.3    0.00 
 201    7:20   0.31   64.8    44    0.0    96     0.7   955.2    0.00 
 201    7:30   0.35   68.2    41    0.1    84     0.8   955.2    0.00 
 201    7:40   0.38   70.3    38    0.5   217     2.2   955.1    0.00 
 201    7:50   0.41   71.8    37    1.0   214     1.9   955.0    0.00 
 201    8:00   0.44   72.0    34    2.4   242     6.3   954.9    0.00 
 201    8:10   0.47   74.1    31    1.4   286     5.0   954.7    0.00 
 201    8:20   0.50   75.8    28    1.5   326     4.7   954.7    0.00 
 201    8:30   0.53   75.6    29    1.8   318     6.2   954.7    0.00 
 201    8:40   0.56   75.3    28    3.4   255     7.5   954.8    0.00 
 201    8:50   0.59   74.4    28    3.5   257     7.4   954.8    0.00 
 201    9:00   0.62   75.4    28    3.0   253     9.2   955.0    0.00 
 201    9:10   0.64   74.9    29    4.4   237     7.5   955.0    0.00 
 201    9:20   0.67   75.5    29    3.0   241     7.3   955.0    0.00 
 201    9:30   0.69   77.1    28    1.3   233     4.9   955.1    0.00 
 201    9:40   0.72   77.6    27    2.1   273     7.2   955.2    0.00 
 201    9:50   0.74   77.1    28    3.5   250     8.4   955.1    0.00 
 201   10:00   0.76   77.0    28    2.7   249     8.0   955.2    0.00 
 201   10:10   0.79   79.8    25    1.2   307     4.2   955.2    0.00 
 201   10:20   0.81   81.1    24    1.4   300     6.4   955.2    0.00 
 201   10:30   0.82   80.0    26    3.4   252     9.3   955.3    0.00 
 201   10:40   0.84   79.7    26    2.3   272     6.2   955.4    0.00 
 201   10:50   0.82   79.8    24    3.5   259     7.2   955.4    0.00 
 201   11:00   0.87   79.5    25    3.6   253     8.9   955.4    0.00 
 201   11:10   0.88   80.8    25    2.7   262     8.9   955.4    0.00 
 201   11:20   0.89   81.3    25    2.6   260     8.6   955.4    0.00 
 201   11:30   0.91   83.6    22    1.7   274     8.6   955.4    0.00 
 201   11:40   0.91   81.3    20    5.3   248    10.7   955.4    0.00 
 201   11:50   0.92   82.2    20    3.1   262     7.9   955.4    0.00 
 201   12:00   0.93   82.1    21    2.3   274     6.9   955.3    0.00 
 201   12:10   0.93   82.3    21    2.7   258     8.4   955.3    0.00 

Return to Hastings Natural History Reservation graphs page.


Western Regional Climate Center,wrcc@dri.edu